M I D A S
Marine Information and Data Acquisition System
Tripno 1337 of the Zeeleeuw from 2007-07-04 06:37:35 to 2007-07-04 15:13:46
Back to CruiseResearch ActivitiesStationsMapUnderway DataData graphs

EquipmentUnitsComment
TimeDGPSUTC
LatitudeDGPSDM.mWGS84
LongitudeDGPSDM.mWGS84
HeadingGyrodeg 
SOGDGPSknotsSpeed over ground
COGDGPSdegCourse over ground
DepthEcho soundermeters200 kHz
Missing or incorrect values are displayed as -999
Navigation data collected by the RV Zeeleeuw from 2007-07-04 06:35:43 to 2007-07-04 15:23:39
Time Latitude Longitude Heading SOG COG Depth
2007-07-04 06:36:48 51°13.598 2°56.095 127 0.1 302 8.6
2007-07-04 06:37:48 51°13.598 2°56.096 124.6 -999 163 8.6
2007-07-04 06:38:48 51°13.596 2°56.094 112.3 0.1 242 8.5
2007-07-04 06:39:47 51°13.597 2°56.095 117.5 0.1 350 8.5
2007-07-04 06:40:48 51°13.597 2°56.095 128.4 0.1 47 8.5
2007-07-04 06:41:47 51°13.598 2°56.096 125.6 -999 312 8.5
2007-07-04 06:42:48 51°13.597 2°56.096 126.8 0.1 155 8.5
2007-07-04 06:43:48 51°13.597 2°56.096 122.7 0.1 240 8.5
2007-07-04 06:44:48 51°13.597 2°56.096 121.2 0.1 174 8.4
2007-07-04 06:45:48 51°13.597 2°56.095 112.7 0.3 308 8.4
2007-07-04 06:46:48 51°13.616 2°56.037 114.6 3.4 295 -999
2007-07-04 06:47:48 51°13.645 2°55.938 118.1 4.5 300 -999
2007-07-04 06:48:48 51°13.672 2°55.84 103.9 3.6 286 -999
2007-07-04 06:49:48 51°13.68 2°55.762 89 2.5 272 11
2007-07-04 06:50:47 51°13.682 2°55.737 52.6 0.7 244 11.2
2007-07-04 06:51:48 51°13.691 2°55.728 1.9 1.9 350 11.4
2007-07-04 06:52:48 51°13.771 2°55.669 339.5 8.1 335 11.5
2007-07-04 06:53:48 51°13.912 2°55.57 340.4 9.7 337 11.1
2007-07-04 06:54:48 51°14.052 2°55.474 339.8 7.9 336 -999
2007-07-04 06:55:48 51°14.176 2°55.371 331.5 8.8 326 -999
2007-07-04 06:56:48 51°14.297 2°55.198 318 10.7 313 10.8
2007-07-04 06:57:48 51°14.409 2°54.973 306.9 10.8 300 10.9
2007-07-04 06:58:48 51°14.449 2°54.665 275.8 12.5 267 11.1
2007-07-04 06:59:47 51°14.384 2°54.367 243.2 11.1 239 9.2
2007-07-04 07:00:48 51°14.281 2°54.094 243.8 12.7 241 9
2007-07-04 07:01:48 51°14.175 2°53.803 243.9 12.5 238 8.8
2007-07-04 07:02:47 51°14.076 2°53.514 246.7 12.6 241 9.4
2007-07-04 07:03:48 51°13.975 2°53.212 246 12.9 242 9.6
2007-07-04 07:04:48 51°13.873 2°52.915 246.3 12.8 241 10.1
2007-07-04 07:05:48 51°13.771 2°52.618 245.3 12.8 242 10
2007-07-04 07:06:48 51°13.669 2°52.32 246.8 12.7 240 10.2
2007-07-04 07:07:48 51°13.566 2°52.022 246 12.9 241 10.4
2007-07-04 07:08:48 51°13.464 2°51.722 246.8 13 242 10.4
2007-07-04 07:09:48 51°13.362 2°51.418 246.2 13.1 243 10.5
2007-07-04 07:10:48 51°13.259 2°51.114 246.4 13.1 241 10.4
2007-07-04 07:11:48 51°13.155 2°50.811 246.3 13.1 242 10.6
2007-07-04 07:12:48 51°13.052 2°50.507 246.2 13 241 10.8
2007-07-04 07:13:48 51°12.949 2°50.204 246.3 13.1 242 10.8
2007-07-04 07:14:48 51°12.845 2°49.897 246.3 13 241 10.9
2007-07-04 07:15:47 51°12.744 2°49.594 246.6 13.3 242 11.1
2007-07-04 07:16:48 51°12.638 2°49.282 246.4 13.2 242 11.3
2007-07-04 07:17:48 51°12.533 2°48.977 245.8 13 242 11.3
2007-07-04 07:18:48 51°12.429 2°48.675 246.2 13.1 241 11.4
2007-07-04 07:19:48 51°12.325 2°48.374 245.8 13.1 242 11.6
2007-07-04 07:20:48 51°12.222 2°48.066 246.2 13.1 242 11.3
2007-07-04 07:21:48 51°12.119 2°47.762 246 13.1 242 11.3
2007-07-04 07:22:47 51°12.017 2°47.46 246.2 13.2 242 11.4
2007-07-04 07:23:48 51°11.917 2°47.144 249.8 13.2 245 11.5
2007-07-04 07:24:48 51°11.837 2°46.818 253.9 13.3 249 11.6
2007-07-04 07:25:48 51°11.758 2°46.491 253.8 13.3 249 11.8
2007-07-04 07:26:48 51°11.679 2°46.166 253.3 13.2 250 11.8
2007-07-04 07:27:48 51°11.606 2°45.834 256.1 13.4 251 11.9
2007-07-04 07:28:48 51°11.535 2°45.501 256.2 13.2 251 11.7
2007-07-04 07:29:48 51°11.465 2°45.169 254.9 13.2 251 11.7
2007-07-04 07:30:48 51°11.393 2°44.836 255.4 13.4 252 11.9
2007-07-04 07:31:48 51°11.324 2°44.499 255.4 13.4 252 11.8
2007-07-04 07:32:48 51°11.254 2°44.164 255.2 13.3 252 11.7
2007-07-04 07:33:48 51°11.184 2°43.83 255.4 13.2 253 11.6
2007-07-04 07:34:48 51°11.116 2°43.496 255.7 13.3 253 11.6
2007-07-04 07:35:48 51°11.054 2°43.156 258.9 13.3 254 11.8
2007-07-04 07:36:48 51°10.998 2°42.813 258 13.5 255 11.8
2007-07-04 07:37:48 51°10.932 2°42.477 254.4 13.3 250 11.6
2007-07-04 07:38:48 51°10.85 2°42.148 250.2 13.4 246 11.5
2007-07-04 07:39:48 51°10.789 2°41.815 271.6 13 276 11.7
2007-07-04 07:40:49 51°10.933 2°41.614 354.6 12 356 11.4
2007-07-04 07:41:47 51°11.062 2°41.724 55.4 9.1 60 11.5
2007-07-04 07:42:48 51°11.096 2°41.96 86.2 7.7 85 11.5
2007-07-04 07:43:48 51°11.117 2°42.099 68.9 3.2 63 11.4
2007-07-04 07:44:48 51°11.129 2°42.115 36.1 0.5 16 11.3
2007-07-04 07:45:48 51°11.135 2°42.115 16 0.1 8 11.1
2007-07-04 07:46:48 51°11.136 2°42.111 5.7 0.1 281 11.3
2007-07-04 07:47:48 51°11.134 2°42.108 4.2 0.1 184 11.3
2007-07-04 07:48:48 51°11.132 2°42.109 5 0.2 121 11.1
2007-07-04 07:49:48 51°11.129 2°42.109 5.8 0.3 171 11.3
2007-07-04 07:50:48 51°11.124 2°42.109 8.5 0.5 167 11.3
2007-07-04 07:51:48 51°11.118 2°42.109 13.9 0.4 179 11.3
2007-07-04 07:52:48 51°11.111 2°42.108 15.6 0.5 168 11.5
2007-07-04 07:53:48 51°11.104 2°42.108 15.6 0.4 177 11.5
2007-07-04 07:54:48 51°11.098 2°42.108 14.2 0.3 179 11.3
2007-07-04 07:55:48 51°11.091 2°42.108 12.1 0.5 163 11.5
2007-07-04 07:56:48 51°11.085 2°42.109 9.4 0.4 182 11.7
2007-07-04 07:57:48 51°11.079 2°42.109 10.3 0.4 171 11.4
2007-07-04 07:58:48 51°11.073 2°42.108 13.2 0.4 198 11.4
2007-07-04 07:59:48 51°11.067 2°42.106 10.6 0.4 173 11.5
2007-07-04 08:00:48 51°11.061 2°42.107 9 0.3 188 11.1
2007-07-04 08:01:48 51°11.056 2°42.106 7.4 0.3 194 11.4
2007-07-04 08:02:48 51°11.049 2°42.104 10.5 0.5 211 11.7
2007-07-04 08:03:48 51°11.041 2°42.103 11.7 0.6 169 11.6
2007-07-04 08:04:48 51°11.033 2°42.102 16.1 0.5 161 11.3
2007-07-04 08:05:48 51°11.025 2°42.101 14 0.4 179 11.6
2007-07-04 08:06:48 51°11.018 2°42.1 10.6 0.4 192 11.2
2007-07-04 08:07:48 51°11.011 2°42.099 8.6 0.5 184 11.7
2007-07-04 08:08:48 51°11.003 2°42.098 9.3 0.4 185 11.8
2007-07-04 08:09:48 51°11.002 2°42.098 3.4 1 353 11.7
2007-07-04 08:10:48 51°11.044 2°42.068 342.8 3.8 335 11.2
2007-07-04 08:11:48 51°11.102 2°42.026 346.6 2.9 336 11.5
2007-07-04 08:12:48 51°11.124 2°42.007 339.4 0.6 313 11.4
2007-07-04 08:13:48 51°11.129 2°42 339.5 0.2 10 11.3
2007-07-04 08:14:48 51°11.129 2°41.998 353.8 0.1 185 11.1
2007-07-04 08:15:48 51°11.123 2°42 9.2 0.4 171 10.4
2007-07-04 08:16:48 51°11.114 2°41.999 16.3 0.6 188 11.2
2007-07-04 08:17:48 51°11.105 2°41.997 19.2 0.5 193 11.1
2007-07-04 08:18:48 51°11.096 2°41.995 20.4 0.6 176 11.3
2007-07-04 08:19:48 51°11.086 2°41.991 21.7 0.5 202 11
2007-07-04 08:20:48 51°11.078 2°41.989 20.1 0.5 220 11.3
2007-07-04 08:21:48 51°11.071 2°41.988 15.8 0.4 181 11.1
2007-07-04 08:22:48 51°11.065 2°41.986 12.4 0.5 199 11.3
2007-07-04 08:23:48 51°11.058 2°41.985 13.1 0.3 158 11.5
2007-07-04 08:24:48 51°11.049 2°41.983 19.2 0.6 194 11.3
2007-07-04 08:25:48 51°11.04 2°41.98 20.1 0.5 200 11.3
2007-07-04 08:26:48 51°11.032 2°41.978 20.4 0.5 199 11.3
2007-07-04 08:27:48 51°11.024 2°41.977 17.1 0.5 170 11.3
2007-07-04 08:28:48 51°11.016 2°41.975 12.7 0.5 180 11.4
2007-07-04 08:29:48 51°11.009 2°41.974 11 0.4 186 11.5
2007-07-04 08:30:48 51°11.001 2°41.973 14.7 0.5 193 11.6
2007-07-04 08:31:48 51°10.993 2°41.971 15.8 0.5 189 11.4
2007-07-04 08:32:48 51°10.986 2°41.968 15.4 0.4 185 11.6
2007-07-04 08:33:48 51°10.979 2°41.967 14.7 0.5 167 11.2
2007-07-04 08:34:48 51°10.971 2°41.966 13.6 0.5 197 11.5
2007-07-04 08:35:48 51°10.964 2°41.964 12.6 0.5 177 11.3
2007-07-04 08:36:48 51°10.965 2°41.966 15.5 1.3 8 11.3
2007-07-04 08:37:48 51°11.003 2°41.97 20.4 2.7 16 11.5
2007-07-04 08:38:48 51°11.052 2°42.008 30.1 3.7 21 11.2
2007-07-04 08:39:48 51°11.113 2°42.047 26.2 4 17 10.9
2007-07-04 08:40:48 51°11.178 2°42.065 13.5 3.6 6 10.9
2007-07-04 08:41:48 51°11.231 2°42.067 9.3 2.7 4 10.8
2007-07-04 08:42:48 51°11.272 2°42.069 7.9 2.4 1 10.6
2007-07-04 08:43:48 51°11.312 2°42.072 11.3 2.2 4 10.8
2007-07-04 08:44:48 51°11.35 2°42.075 10.2 2.2 3 10.6
2007-07-04 08:45:48 51°11.404 2°42.086 16 5.4 18 9.9
2007-07-04 08:46:48 51°11.501 2°42.232 43.4 9.6 41 9.7
2007-07-04 08:47:48 51°11.639 2°42.419 45.2 11.7 40 8.6
2007-07-04 08:48:48 51°11.788 2°42.627 45 12.2 44 8.5
2007-07-04 08:49:48 51°11.937 2°42.838 44.3 11.9 40 8.9
2007-07-04 08:50:48 51°12.079 2°43.061 50.8 11.8 45 9.4
2007-07-04 08:51:48 51°12.218 2°43.286 48.4 11.7 48 9
2007-07-04 08:52:48 51°12.355 2°43.517 51.2 12 46 10
2007-07-04 08:53:48 51°12.495 2°43.741 46.3 11.9 49 10.7
2007-07-04 08:54:48 51°12.635 2°43.965 49.2 12.1 46 11.6
2007-07-04 08:55:48 51°12.775 2°44.184 50.7 11.7 44 11.6
2007-07-04 08:56:48 51°12.912 2°44.407 49.2 11.8 43 11.4
2007-07-04 08:57:48 51°13.049 2°44.631 47.9 11.9 45 11.1
2007-07-04 08:58:48 51°13.187 2°44.855 48.5 12 45 10.8
2007-07-04 08:59:48 51°13.328 2°45.077 49.3 12 45 10.5
2007-07-04 09:00:48 51°13.467 2°45.3 46.3 11.6 46 9.1
2007-07-04 09:01:48 51°13.607 2°45.517 48.6 11.7 34 8
2007-07-04 09:02:48 51°13.787 2°45.621 16.9 11.8 14 7.5
2007-07-04 09:03:48 51°13.987 2°45.677 17.2 12.3 8 9.9
2007-07-04 09:04:48 51°14.188 2°45.687 7 12.1 -999 11.6
2007-07-04 09:05:48 51°14.389 2°45.686 8.2 11.8 359 9.3
2007-07-04 09:06:48 51°14.562 2°45.569 330.3 11.7 318 7.5
2007-07-04 09:07:48 51°14.695 2°45.324 323.6 12.3 318 -999
2007-07-04 09:08:48 51°14.852 2°45.108 328.9 12.5 324 13.4
2007-07-04 09:09:48 51°15.015 2°44.912 331.6 12.1 323 15.1
2007-07-04 09:10:48 51°15.178 2°44.711 330.6 12.6 323 16.8
2007-07-04 09:11:48 51°15.344 2°44.511 331.7 12.5 323 15.8
2007-07-04 09:12:48 51°15.507 2°44.324 332.5 12.1 324 12.4
2007-07-04 09:13:48 51°15.67 2°44.135 332.3 11.8 323 11.5
2007-07-04 09:14:48 51°15.831 2°43.955 331.8 11.9 325 10.9
2007-07-04 09:15:48 51°15.993 2°43.772 333.2 11.7 325 10.1
2007-07-04 09:16:48 51°16.152 2°43.591 332.2 11.7 324 12
2007-07-04 09:17:48 51°16.311 2°43.406 331.5 12 323 13.6
2007-07-04 09:18:48 51°16.474 2°43.22 334.1 12.2 325 11.8
2007-07-04 09:19:48 51°16.638 2°43.039 334.2 11.8 326 11.5
2007-07-04 09:20:48 51°16.8 2°42.851 333.4 12.3 324 10.5
2007-07-04 09:21:48 51°16.965 2°42.674 335.7 11.9 327 9.3
2007-07-04 09:22:48 51°17.133 2°42.489 334.2 12.4 325 9
2007-07-04 09:23:48 51°17.305 2°42.3 334.2 12.3 325 19.7
2007-07-04 09:24:48 51°17.453 2°42.133 333.9 8.3 322 22.2
2007-07-04 09:25:48 51°17.514 2°42.02 306.8 3.6 286 23.2
2007-07-04 09:26:48 51°17.506 2°41.938 258.7 2.8 242 22.7
2007-07-04 09:27:48 51°17.482 2°41.917 226.5 1.3 187 23.3
2007-07-04 09:28:48 51°17.465 2°41.917 198.8 1 178 22.5
2007-07-04 09:29:48 51°17.451 2°41.918 178.4 0.8 194 23.2
2007-07-04 09:30:48 51°17.417 2°41.92 182.5 3.6 189 23.6
2007-07-04 09:31:48 51°17.36 2°41.871 236.4 4.3 231 22.9
2007-07-04 09:32:48 51°17.324 2°41.774 261 4.4 242 22.4
2007-07-04 09:33:48 51°17.291 2°41.666 260.6 4.7 245 22.4
2007-07-04 09:34:48 51°17.265 2°41.584 266 3.2 240 23.2
2007-07-04 09:35:48 51°17.259 2°41.493 298.3 3.8 279 23.3
2007-07-04 09:36:48 51°17.262 2°41.383 283.7 4.3 264 22.9
2007-07-04 09:37:48 51°17.251 2°41.295 281.6 2.8 256 23
2007-07-04 09:38:48 51°17.236 2°41.209 267.4 4 247 22.8
2007-07-04 09:39:48 51°17.199 2°41.109 256.2 4.4 240 22.5
2007-07-04 09:40:48 51°17.168 2°41.03 263.1 3 232 22.2
2007-07-04 09:41:48 51°17.141 2°40.957 268.1 3.3 243 22.1
2007-07-04 09:42:48 51°17.133 2°40.883 305.9 2.6 279 22.6
2007-07-04 09:43:48 51°17.17 2°40.818 344.8 3.7 331 22.4
2007-07-04 09:44:48 51°17.229 2°40.812 25 3.7 23 22.5
2007-07-04 09:45:48 51°17.279 2°40.872 33.5 3.7 28 22.3
2007-07-04 09:46:48 51°17.331 2°40.914 34.7 3.4 36 21.8
2007-07-04 09:47:48 51°17.374 2°40.975 46.5 3.6 47 22.1
2007-07-04 09:48:48 51°17.411 2°41.048 47.7 3.5 57 22
2007-07-04 09:49:48 51°17.454 2°41.102 34.8 3.3 34 22.5
2007-07-04 09:50:48 51°17.498 2°41.158 45.2 3.4 52 22
2007-07-04 09:51:48 51°17.52 2°41.245 70.1 3.9 85 22.9
2007-07-04 09:52:48 51°17.542 2°41.327 50.4 3 57 22
2007-07-04 09:53:48 51°17.574 2°41.383 42 2.9 37 22.9
2007-07-04 09:54:48 51°17.612 2°41.428 35.5 2.9 30 22.7
2007-07-04 09:55:48 51°17.654 2°41.473 35.5 3.2 35 22.8
2007-07-04 09:56:48 51°17.695 2°41.526 41.8 3.1 37 23.2
2007-07-04 09:57:48 51°17.735 2°41.57 30.5 2.9 25 23.3
2007-07-04 09:58:48 51°17.78 2°41.594 22.5 2.8 10 22.8
2007-07-04 09:59:48 51°17.828 2°41.608 19 3 12 22.7
2007-07-04 10:00:48 51°17.875 2°41.635 32.4 3.2 37 23
2007-07-04 10:01:48 51°17.918 2°41.686 34.1 3.1 29 22.8
2007-07-04 10:02:48 51°17.968 2°41.715 22.7 3.2 20 22.8
2007-07-04 10:03:48 51°18.019 2°41.75 34.1 3.4 41 22.8
2007-07-04 10:04:48 51°18.061 2°41.81 39.6 3.4 37 23.3
2007-07-04 10:05:48 51°18.109 2°41.849 23.1 3.2 17 23
2007-07-04 10:06:48 51°18.159 2°41.882 32.8 3.4 32 23.2
2007-07-04 10:07:48 51°18.208 2°41.928 28.5 3.2 30 23.1
2007-07-04 10:08:48 51°18.252 2°41.984 42.2 3.4 44 23.2
2007-07-04 10:09:48 51°18.298 2°42.029 29.9 3.2 24 23.1
2007-07-04 10:10:48 51°18.349 2°42.065 24.5 3.5 19 22.8
2007-07-04 10:11:48 51°18.399 2°42.108 35.9 3.5 33 23
2007-07-04 10:12:48 51°18.441 2°42.174 42.9 3.5 47 23.4
2007-07-04 10:13:48 51°18.485 2°42.229 34.7 3.2 34 22.5
2007-07-04 10:14:48 51°18.528 2°42.283 36.4 3.2 39 23.1
2007-07-04 10:15:48 51°18.576 2°42.322 25 3.4 20 23
2007-07-04 10:16:48 51°18.627 2°42.338 14.5 3.4 2 23.4
2007-07-04 10:17:48 51°18.68 2°42.342 18.3 3.2 12 23.2
2007-07-04 10:18:48 51°18.72 2°42.39 42.5 2.8 42 23.2
2007-07-04 10:19:48 51°18.747 2°42.442 54.4 2.6 67 23.2
2007-07-04 10:20:48 51°18.748 2°42.511 77.6 2.8 108 23
2007-07-04 10:21:48 51°18.72 2°42.563 124.1 2.7 158 23.4
2007-07-04 10:22:48 51°18.681 2°42.577 151.3 2.2 177 23
2007-07-04 10:23:48 51°18.648 2°42.574 166 1.8 190 23.1
2007-07-04 10:24:48 51°18.62 2°42.566 174.3 1.5 187 23.2
2007-07-04 10:25:48 51°18.595 2°42.557 183.8 1.3 185 23.5
2007-07-04 10:26:48 51°18.574 2°42.552 182 1.2 197 23.4
2007-07-04 10:27:48 51°18.555 2°42.549 172.7 1 171 23.4
2007-07-04 10:28:48 51°18.527 2°42.547 168.9 3.2 181 23.5
2007-07-04 10:29:48 51°18.426 2°42.538 186.2 8.9 193 22.7
2007-07-04 10:30:48 51°18.258 2°42.453 199.3 11.3 198 23.5
2007-07-04 10:31:48 51°18.078 2°42.36 197.4 11.3 198 23.7
2007-07-04 10:32:48 51°17.913 2°42.219 219 11.3 217 24.1
2007-07-04 10:33:48 51°17.765 2°42.034 222.2 12 219 23.6
2007-07-04 10:34:48 51°17.602 2°41.827 221 12.7 217 23.7
2007-07-04 10:35:48 51°17.434 2°41.623 220.5 12.6 218 24.1
2007-07-04 10:36:48 51°17.265 2°41.418 219.9 12.8 219 23.5
2007-07-04 10:37:48 51°17.095 2°41.214 220 12.9 216 23.1
2007-07-04 10:38:48 51°16.923 2°41.01 219.8 12.9 215 22.4
2007-07-04 10:39:48 51°16.752 2°40.806 218.6 12.8 217 22.4
2007-07-04 10:40:48 51°16.58 2°40.604 219.5 12.8 219 21.7
2007-07-04 10:41:48 51°16.408 2°40.405 219.7 12.8 216 21.6
2007-07-04 10:42:48 51°16.237 2°40.206 218.8 11.7 217 20.6
2007-07-04 10:43:48 51°16.117 2°40.068 220.3 7.1 214 20.5
2007-07-04 10:44:48 51°16.036 2°39.988 220.7 5 210 20.4
2007-07-04 10:45:48 51°15.966 2°39.923 219.2 5.5 212 20
2007-07-04 10:46:48 51°15.861 2°39.812 218.4 8.6 213 19.6
2007-07-04 10:47:48 51°15.735 2°39.676 219.9 9.4 214 19.2
2007-07-04 10:48:48 51°15.609 2°39.54 219.8 7.9 213 19
2007-07-04 10:49:48 51°15.518 2°39.521 150.9 4.6 156 18.9
2007-07-04 10:50:48 51°15.486 2°39.592 76.2 2.6 87 18.7
2007-07-04 10:51:48 51°15.526 2°39.658 46.7 5.4 51 18.7
2007-07-04 10:52:48 51°15.602 2°39.785 48.5 7.2 48 18.6
2007-07-04 10:53:48 51°15.678 2°39.92 50.2 5.2 62 18.8
2007-07-04 10:54:48 51°15.691 2°40.013 68.9 2.4 86 18.7
2007-07-04 10:55:48 51°15.691 2°40.04 39.1 0.6 82 18.1
2007-07-04 10:56:48 51°15.687 2°40.049 25 0.6 137 18.5
2007-07-04 10:57:48 51°15.681 2°40.049 13.7 0.5 192 18.5
2007-07-04 10:58:48 51°15.669 2°40.046 5.7 0.9 183 18.3
2007-07-04 10:59:48 51°15.655 2°40.044 2.3 0.9 195 18.3
2007-07-04 11:00:48 51°15.639 2°40.044 0.5 1.1 183 18.5
2007-07-04 11:01:48 51°15.621 2°40.042 3.1 1 186 18.2
2007-07-04 11:02:48 51°15.604 2°40.043 2 1 170 17.8
2007-07-04 11:03:48 51°15.586 2°40.043 3.6 1 188 18.4
2007-07-04 11:04:48 51°15.569 2°40.045 2.1 1.1 184 18
2007-07-04 11:05:48 51°15.551 2°40.049 2.8 1.1 168 17.6
2007-07-04 11:06:48 51°15.533 2°40.051 3.7 0.9 183 17.7
2007-07-04 11:07:48 51°15.516 2°40.054 2.8 1 177 17.5
2007-07-04 11:08:48 51°15.501 2°40.057 4.7 0.8 177 17.3
2007-07-04 11:09:48 51°15.494 2°40.057 2.6 0.7 334 16.7
2007-07-04 11:10:48 51°15.531 2°40.023 331.3 4.3 318 18.1
2007-07-04 11:11:48 51°15.602 2°39.918 322.6 6.9 313 18.6
2007-07-04 11:12:48 51°15.668 2°39.887 27 2.8 33 18.7
2007-07-04 11:13:48 51°15.688 2°39.95 61.7 3 74 19.2
2007-07-04 11:14:48 51°15.704 2°40.004 44.7 1.2 53 19
2007-07-04 11:15:48 51°15.708 2°40.014 18 0.1 96 18.5
2007-07-04 11:16:48 51°15.704 2°40.013 8.2 0.4 190 19.2
2007-07-04 11:17:48 51°15.696 2°40.008 354.8 0.6 186 19.3
2007-07-04 11:18:48 51°15.684 2°40.005 349.2 0.9 171 19
2007-07-04 11:19:48 51°15.669 2°40.005 353.3 0.9 171 18.4
2007-07-04 11:20:48 51°15.652 2°40.007 357.9 1.1 175 18.9
2007-07-04 11:21:48 51°15.633 2°40.011 6.5 1.2 173 18.3
2007-07-04 11:22:48 51°15.61 2°40.013 12 1.3 182 18.5
2007-07-04 11:23:48 51°15.587 2°40.015 19.4 1.4 181 18.4
2007-07-04 11:24:48 51°15.563 2°40.017 18.6 1.4 177 17.9
2007-07-04 11:25:48 51°15.539 2°40.02 19.4 1.3 174 18.2
2007-07-04 11:26:48 51°15.516 2°40.024 15.2 1.2 176 17.7
2007-07-04 11:27:48 51°15.494 2°40.029 11.4 1.3 169 17.8
2007-07-04 11:28:48 51°15.474 2°40.034 8.3 1.3 169 17.4
2007-07-04 11:29:48 51°15.453 2°40.04 8.9 1.3 180 17.2
2007-07-04 11:30:48 51°15.446 2°40.047 9.4 1 12 16.9
2007-07-04 11:31:48 51°15.507 2°40.051 5.9 6.5 5 17.4
2007-07-04 11:32:49 51°15.642 2°40.115 26.8 9.2 25 18.3
2007-07-04 11:33:49 51°15.786 2°40.22 28.2 9.6 24 18.8
2007-07-04 11:34:49 51°15.924 2°40.342 29.7 9.5 31 19.5
2007-07-04 11:35:49 51°16.064 2°40.461 30.3 9.6 28 20.1
2007-07-04 11:36:49 51°16.203 2°40.58 30.8 9.4 27 20.1
2007-07-04 11:37:49 51°16.334 2°40.717 42.9 9.5 41 20.4
2007-07-04 11:38:49 51°16.449 2°40.892 43.5 9.6 48 21
2007-07-04 11:39:49 51°16.568 2°41.062 43.1 9.7 39 21.2
2007-07-04 11:40:49 51°16.695 2°41.24 43.7 10.3 37 21.7
2007-07-04 11:41:49 51°16.828 2°41.422 40 10.5 42 21.7
2007-07-04 11:42:49 51°16.961 2°41.605 43 10.5 38 22.2
2007-07-04 11:43:49 51°17.094 2°41.79 44.1 10.6 47 22.4
2007-07-04 11:44:49 51°17.194 2°42.025 59.4 10.8 56 22.3
2007-07-04 11:45:49 51°17.282 2°42.273 67.1 10.9 75 21.3
2007-07-04 11:46:49 51°17.336 2°42.549 72.6 10.9 71 16.1
2007-07-04 11:47:49 51°17.394 2°42.818 70.5 10.6 67 12.2
2007-07-04 11:48:49 51°17.451 2°43.084 71.5 10.7 73 10.4
2007-07-04 11:49:49 51°17.507 2°43.354 68.6 10.4 76 10.4
2007-07-04 11:50:49 51°17.565 2°43.621 71.9 10.7 68 15.7
2007-07-04 11:51:49 51°17.629 2°43.883 63.8 10.5 70 14.2
2007-07-04 11:52:49 51°17.699 2°44.143 64.5 11 71 17.6
2007-07-04 11:53:49 51°17.768 2°44.4 66 10.6 67 18
2007-07-04 11:54:49 51°17.836 2°44.656 66.8 10.1 67 18.5
2007-07-04 11:55:49 51°17.884 2°44.842 65.7 6.4 67 18.9
2007-07-04 11:56:49 51°17.91 2°44.959 63.4 3.7 74 19
2007-07-04 11:57:49 51°17.926 2°45.035 63.2 2.9 72 19.3
2007-07-04 11:58:49 51°17.935 2°45.113 69.7 3 81 19.4
2007-07-04 11:59:49 51°17.949 2°45.186 58.6 3.1 69 19
2007-07-04 12:00:49 51°17.972 2°45.272 59.7 3.7 72 19
2007-07-04 12:01:49 51°17.995 2°45.359 60.9 3.3 69 19.1
2007-07-04 12:02:49 51°18.015 2°45.433 57.8 2.9 69 19
2007-07-04 12:03:49 51°18.034 2°45.501 55.2 2.8 66 19.2
2007-07-04 12:04:49 51°18.061 2°45.569 51.5 3.1 61 18.6
2007-07-04 12:05:49 51°18.085 2°45.65 64.6 3.5 72 19.4
2007-07-04 12:06:49 51°18.1 2°45.737 61.3 3.3 72 19.1
2007-07-04 12:07:49 51°18.126 2°45.814 50.6 3.3 56 19
2007-07-04 12:08:49 51°18.158 2°45.885 52.2 3.4 58 19.1
2007-07-04 12:09:49 51°18.18 2°45.971 66.5 3.7 75 18.8
2007-07-04 12:10:49 51°18.185 2°46.069 85.8 3.8 92 19.1
2007-07-04 12:11:49 51°18.192 2°46.158 60.2 3.1 64 19.2
2007-07-04 12:12:49 51°18.223 2°46.229 47.1 3.4 56 18.1
2007-07-04 12:13:49 51°18.259 2°46.298 45.3 3.4 47 19.1
2007-07-04 12:14:49 51°18.295 2°46.368 48.8 3.5 56 19.5
2007-07-04 12:15:49 51°18.328 2°46.445 50 3.4 52 19.2
2007-07-04 12:16:49 51°18.363 2°46.515 42.1 3.3 42 19.1
2007-07-04 12:17:49 51°18.403 2°46.57 36.6 3.2 43 18.8
2007-07-04 12:18:49 51°18.436 2°46.639 52.1 3.4 57 18.9
2007-07-04 12:19:49 51°18.464 2°46.722 55.9 3.6 61 19.7
2007-07-04 12:20:49 51°18.495 2°46.8 49.9 3.4 59 19.1
2007-07-04 12:21:49 51°18.523 2°46.872 55.1 3.2 64 18.9
2007-07-04 12:22:49 51°18.541 2°46.951 68.7 3.2 78 19.1
2007-07-04 12:23:49 51°18.552 2°47.036 69.6 3.2 79 18.9
2007-07-04 12:24:49 51°18.568 2°47.114 60 3 68 18.7
2007-07-04 12:25:49 51°18.591 2°47.185 53.4 3 63 18.2
2007-07-04 12:26:49 51°18.619 2°47.251 46.8 2.9 54 18.6
2007-07-04 12:27:49 51°18.651 2°47.308 41.1 2.9 47 18.9
2007-07-04 12:28:49 51°18.676 2°47.372 55.3 2.9 68 18.8
2007-07-04 12:29:49 51°18.687 2°47.45 78 3.2 90 18.7
2007-07-04 12:30:49 51°18.669 2°47.53 112.2 3.3 118 18.2
2007-07-04 12:31:49 51°18.634 2°47.592 147.2 2.9 150 17.6
2007-07-04 12:32:49 51°18.597 2°47.616 171.8 2 158 17.2
2007-07-04 12:33:49 51°18.573 2°47.633 175.6 1.3 159 17
2007-07-04 12:34:49 51°18.556 2°47.651 179.1 1.1 144 16.3
2007-07-04 12:35:49 51°18.54 2°47.67 180.3 1.7 147 16.1
2007-07-04 12:36:49 51°18.493 2°47.642 236.6 4 234 16.1
2007-07-04 12:37:49 51°18.516 2°47.565 341.2 4.1 354 16.4
2007-07-04 12:38:49 51°18.591 2°47.62 29 4.7 30 17.3
2007-07-04 12:39:49 51°18.641 2°47.68 37.1 3.3 46 17.1
2007-07-04 12:40:49 51°18.676 2°47.73 30.2 2.5 36 17.2
2007-07-04 12:41:49 51°18.706 2°47.779 41.4 2.5 49 17.1
2007-07-04 12:42:49 51°18.731 2°47.832 39.1 2.5 55 17
2007-07-04 12:43:49 51°18.768 2°47.892 37.1 3.6 45 16.8
2007-07-04 12:44:49 51°18.819 2°47.954 32.6 3.9 39 17.4
2007-07-04 12:45:49 51°18.869 2°48.027 41.3 4 47 18
2007-07-04 12:46:49 51°18.91 2°48.107 48.4 3.8 53 17.7
2007-07-04 12:47:49 51°18.952 2°48.175 35.2 3.5 40 17.8
2007-07-04 12:48:49 51°18.994 2°48.245 41.8 3.7 52 17.7
2007-07-04 12:49:49 51°19.032 2°48.324 49.8 3.8 56 17.8
2007-07-04 12:50:49 51°19.071 2°48.399 39.6 3.6 47 17.6
2007-07-04 12:51:49 51°19.112 2°48.469 39.9 3.6 47 17.4
2007-07-04 12:52:49 51°19.155 2°48.537 36.9 3.7 44 17.6
2007-07-04 12:53:49 51°19.197 2°48.607 37.9 3.7 43 17.6
2007-07-04 12:54:49 51°19.239 2°48.682 42 3.8 52 17.4
2007-07-04 12:55:49 51°19.28 2°48.76 44.3 3.8 49 17.2
2007-07-04 12:56:49 51°19.321 2°48.835 42.8 3.8 53 17.6
2007-07-04 12:57:49 51°19.36 2°48.911 39.1 3.6 47 18
2007-07-04 12:58:49 51°19.404 2°48.98 39.2 3.8 49 17.5
2007-07-04 12:59:49 51°19.442 2°49.063 48.7 4 55 17.6
2007-07-04 13:00:49 51°19.48 2°49.151 48.5 4 55 17
2007-07-04 13:01:49 51°19.518 2°49.231 39.3 3.4 48 16.7
2007-07-04 13:02:49 51°19.561 2°49.287 25.2 3.3 36 17.1
2007-07-04 13:03:49 51°19.604 2°49.347 35.9 3.5 49 17.4
2007-07-04 13:04:49 51°19.641 2°49.421 41.4 3.6 52 17.5
2007-07-04 13:05:49 51°19.674 2°49.506 55.4 3.9 63 17.7
2007-07-04 13:06:49 51°19.697 2°49.603 65.3 3.9 69 17.5
2007-07-04 13:07:49 51°19.722 2°49.698 56.4 3.7 63 17
2007-07-04 13:08:49 51°19.757 2°49.776 39.1 3.6 50 16.9
2007-07-04 13:09:49 51°19.796 2°49.848 43.6 3.7 53 17.2
2007-07-04 13:10:49 51°19.828 2°49.937 51.3 3.9 58 17.4
2007-07-04 13:11:49 51°19.865 2°50.021 44.3 3.9 52 17.2
2007-07-04 13:12:49 51°19.896 2°50.112 60.2 3.9 65 16.7
2007-07-04 13:13:49 51°19.923 2°50.205 57.4 3.8 64 16.3
2007-07-04 13:14:49 51°19.95 2°50.293 50.8 3.7 61 15.9
2007-07-04 13:15:49 51°19.982 2°50.371 42 3.4 54 16.7
2007-07-04 13:16:49 51°20.009 2°50.453 66.4 3.7 71 17
2007-07-04 13:17:49 51°20.019 2°50.551 88.6 3.8 86 17.4
2007-07-04 13:18:49 51°20.01 2°50.649 118.2 3.6 105 16.5
2007-07-04 13:19:49 51°19.988 2°50.736 132.6 3.5 117 15.5
2007-07-04 13:20:49 51°19.959 2°50.815 147.1 3.3 125 15
2007-07-04 13:21:49 51°19.927 2°50.887 150.5 3.4 126 14.8
2007-07-04 13:22:49 51°19.898 2°50.964 141.9 3.4 120 14.7
2007-07-04 13:23:49 51°19.87 2°51.041 148.1 3.3 119 14.6
2007-07-04 13:24:49 51°19.838 2°51.111 157 3.1 131 14.9
2007-07-04 13:25:49 51°19.802 2°51.18 158.9 4 133 14.8
2007-07-04 13:26:49 51°19.75 2°51.254 167.8 4 141 16.6
2007-07-04 13:27:49 51°19.703 2°51.309 174.9 3.4 145 16.7
2007-07-04 13:28:49 51°19.658 2°51.363 176 3.3 142 17.2
2007-07-04 13:29:49 51°19.614 2°51.415 177.8 3.3 146 17.4
2007-07-04 13:30:49 51°19.563 2°51.45 194.3 3.3 164 17.5
2007-07-04 13:31:49 51°19.509 2°51.467 197 3.4 167 17.2
2007-07-04 13:32:49 51°19.454 2°51.487 198.1 3.3 168 17.6
2007-07-04 13:33:49 51°19.405 2°51.485 218 2.9 192 17.6
2007-07-04 13:34:49 51°19.352 2°51.471 210.9 3.4 189 17.7
2007-07-04 13:35:49 51°19.305 2°51.447 227.6 2.8 204 17.5
2007-07-04 13:36:49 51°19.264 2°51.421 225.7 2.6 198 17.6
2007-07-04 13:37:49 51°19.238 2°51.384 253.1 2.4 256 17.8
2007-07-04 13:38:49 51°19.257 2°51.331 303.3 2 352 17.6
2007-07-04 13:39:49 51°19.29 2°51.349 328.7 2.1 32 17.8
2007-07-04 13:40:49 51°19.314 2°51.39 331.6 2.2 57 17.6
2007-07-04 13:41:49 51°19.331 2°51.444 344.7 2.5 67 17.8
2007-07-04 13:42:49 51°19.341 2°51.501 355.3 2.2 75 18.1
2007-07-04 13:43:49 51°19.363 2°51.561 18.1 3.9 43 18
2007-07-04 13:44:49 51°19.401 2°51.69 93.7 5.1 85 18.2
2007-07-04 13:45:49 51°19.403 2°51.802 116 3.7 91 18.2
2007-07-04 13:46:49 51°19.4 2°51.888 135.7 2.9 93 18.1
2007-07-04 13:47:49 51°19.399 2°51.96 149.4 2.5 92 18.1
2007-07-04 13:48:49 51°19.4 2°52.021 164.6 2.3 87 17.4
2007-07-04 13:49:49 51°19.408 2°52.08 170.4 2.2 74 18.3
2007-07-04 13:50:49 51°19.42 2°52.14 171.2 2.5 70 17.9
2007-07-04 13:51:49 51°19.436 2°52.2 166.2 2.6 65 17.8
2007-07-04 13:52:49 51°19.452 2°52.259 161.9 2.5 68 18
2007-07-04 13:53:49 51°19.469 2°52.32 158.6 2.5 69 18.4
2007-07-04 13:54:49 51°19.485 2°52.384 159.1 2.9 67 17.9
2007-07-04 13:55:49 51°19.502 2°52.447 159.1 2.8 65 18.2
2007-07-04 13:56:49 51°19.518 2°52.51 158.6 2.6 67 18
2007-07-04 13:57:49 51°19.535 2°52.572 161 2.6 67 17.3
2007-07-04 13:58:49 51°19.55 2°52.637 158.5 2.7 81 17.5
2007-07-04 13:59:49 51°19.529 2°52.69 200.1 2.4 162 17.7
2007-07-04 14:00:49 51°19.505 2°52.64 255.8 4.1 254 17.5
2007-07-04 14:01:49 51°19.459 2°52.541 230.7 5.3 219 18
2007-07-04 14:02:49 51°19.373 2°52.424 230.5 7.6 224 17.2
2007-07-04 14:03:49 51°19.262 2°52.235 232.2 10.5 228 17.6
2007-07-04 14:04:49 51°19.145 2°52.027 231.9 10.4 228 17.5
2007-07-04 14:05:49 51°19.029 2°51.821 231.6 10.6 228 17.3
2007-07-04 14:06:49 51°18.911 2°51.622 230.4 10.2 224 17.4
2007-07-04 14:07:49 51°18.789 2°51.426 229.2 10.4 226 16.9
2007-07-04 14:08:49 51°18.671 2°51.23 229.6 9.4 228 16.9
2007-07-04 14:09:49 51°18.606 2°51.136 233 3.1 223 17.1
2007-07-04 14:10:49 51°18.577 2°51.106 233.1 2.3 222 17
2007-07-04 14:11:49 51°18.533 2°51.052 222.2 3.9 209 16.8
2007-07-04 14:12:49 51°18.511 2°51.007 249.2 0.4 33 16.6
2007-07-04 14:13:49 51°18.527 2°51.038 277.7 2.6 54 16.6
2007-07-04 14:14:49 51°18.55 2°51.105 324.7 3 62 16
2007-07-04 14:15:49 51°18.569 2°51.172 351.9 2.7 64 17.5
2007-07-04 14:16:49 51°18.588 2°51.239 6.6 2.9 67 16.5
2007-07-04 14:17:49 51°18.606 2°51.304 4 2.5 63 17.3
2007-07-04 14:18:49 51°18.626 2°51.368 358.7 2.8 60 16.9
2007-07-04 14:19:49 51°18.675 2°51.395 314.7 3.4 349 16.4
2007-07-04 14:20:49 51°18.696 2°51.356 239.5 1.4 211 17.4
2007-07-04 14:21:49 51°18.655 2°51.308 238 5.4 238 16.7
2007-07-04 14:22:49 51°18.577 2°51.183 230.3 6.7 227 16.3
2007-07-04 14:23:49 51°18.517 2°51.052 232.5 4.2 228 16.6
2007-07-04 14:24:49 51°18.498 2°51.016 247.5 0.7 264 16.9
2007-07-04 14:25:49 51°18.503 2°51.024 243.3 0.8 56 16.9
2007-07-04 14:26:49 51°18.502 2°51.048 227.4 1 96 -999
2007-07-04 14:27:49 51°18.496 2°51.063 231.6 0.6 158 16.8
2007-07-04 14:28:49 51°18.485 2°51.076 229.2 1.3 124 17
2007-07-04 14:29:49 51°18.48 2°51.096 234.1 0.6 139 16.5
2007-07-04 14:30:49 51°18.472 2°51.106 235.7 0.5 174 16.8
2007-07-04 14:31:49 51°18.46 2°51.103 231.9 1.1 182 16.1
2007-07-04 14:32:49 51°18.449 2°51.101 237.7 0.4 153 16.9
2007-07-04 14:33:49 51°18.442 2°51.104 234.3 0.6 143 16.4
2007-07-04 14:34:49 51°18.44 2°51.135 223.1 1.9 89 16.6
2007-07-04 14:35:49 51°18.441 2°51.173 236.5 0.8 86 -999
2007-07-04 14:36:49 51°18.446 2°51.2 234.8 1.2 72 16.7
2007-07-04 14:37:49 51°18.45 2°51.236 227.5 1.5 79 16.1
2007-07-04 14:38:49 51°18.455 2°51.276 228.2 1.5 86 16.2
2007-07-04 14:39:49 51°18.459 2°51.306 234.4 0.9 75 16.4
2007-07-04 14:40:49 51°18.464 2°51.324 245.4 1 60 16.4
2007-07-04 14:41:49 51°18.468 2°51.346 232.9 1.2 79 16.1
2007-07-04 14:42:49 51°18.468 2°51.375 230.6 0.8 106 16.1
2007-07-04 14:43:49 51°18.457 2°51.386 226 1.1 160 16.1
2007-07-04 14:44:49 51°18.444 2°51.389 234.5 0.6 206 16
2007-07-04 14:45:49 51°18.438 2°51.409 226.4 1.2 84 15.8
2007-07-04 14:46:49 51°18.435 2°51.425 237.7 0.3 203 16.2
2007-07-04 14:47:49 51°18.436 2°51.432 235.4 0.4 117 16
2007-07-04 14:48:49 51°18.429 2°51.446 226.5 0.6 137 16.1
2007-07-04 14:49:49 51°18.396 2°51.461 183.8 5 153 15.4
2007-07-04 14:50:49 51°18.293 2°51.523 180.3 7.2 163 14.9
2007-07-04 14:51:49 51°18.172 2°51.616 163 9.4 150 14.5
2007-07-04 14:52:49 51°18.027 2°51.768 164 10.5 151 14.1
2007-07-04 14:53:49 51°17.861 2°51.896 167.6 11.8 155 13.2
2007-07-04 14:54:49 51°17.68 2°52.029 166.7 12.1 155 12.7
2007-07-04 14:55:49 51°17.496 2°52.161 166.9 12.1 157 13.1
2007-07-04 14:56:49 51°17.311 2°52.292 168.1 12.1 156 13.6
2007-07-04 14:57:49 51°17.126 2°52.408 171.9 12 161 12.7
2007-07-04 14:58:49 51°16.938 2°52.503 173.6 11.8 166 12.8
2007-07-04 14:59:49 51°16.749 2°52.598 174.1 11.9 163 12.2
2007-07-04 15:00:49 51°16.561 2°52.703 173.4 12.1 161 14.5
2007-07-04 15:01:49 51°16.372 2°52.807 172.9 11.8 165 14.1
2007-07-04 15:02:49 51°16.184 2°52.923 169 12.1 158 15
2007-07-04 15:03:49 51°15.997 2°53.056 168.8 12.4 154 14.4
2007-07-04 15:04:49 51°15.812 2°53.197 167 12.5 150 14.5
2007-07-04 15:05:49 51°15.627 2°53.338 165.4 12.2 157 13.7
2007-07-04 15:06:49 51°15.44 2°53.474 166.8 12.1 158 13.2
2007-07-04 15:07:49 51°15.255 2°53.615 165.8 12.4 154 13
2007-07-04 15:08:49 51°15.072 2°53.769 161.9 12.7 146 12.3
2007-07-04 15:09:49 51°14.906 2°53.976 153.1 13.2 134 12.2
2007-07-04 15:10:49 51°14.757 2°54.226 140.8 12.9 125 12.8
2007-07-04 15:11:49 51°14.622 2°54.506 141.3 13.3 122 13.1
2007-07-04 15:12:49 51°14.489 2°54.789 137 13.4 122 13.7
2007-07-04 15:13:49 51°14.365 2°55.091 127.9 13.1 129 13.8
2007-07-04 15:14:49 51°14.215 2°55.332 139.9 12.5 143 13.5
2007-07-04 15:15:49 51°14.077 2°55.448 157.5 7.7 155 13
2007-07-04 15:16:49 51°13.972 2°55.524 158.2 6.6 156 13.7
2007-07-04 15:17:49 51°13.874 2°55.598 156.9 6.5 153 14
2007-07-04 15:18:49 51°13.768 2°55.677 151.8 7.1 147 14.1
2007-07-04 15:19:49 51°13.7 2°55.798 126.3 5.4 125 15.1
2007-07-04 15:20:49 51°13.654 2°55.906 126 4.6 124 -999
2007-07-04 15:21:49 51°13.617 2°56.003 114.6 3.9 115 -999
2007-07-04 15:22:49 51°13.602 2°56.076 112.9 1.7 107 -999